createdAt,value
2023-06-27T00:00:13.122Z,0.00
2023-06-27T00:01:12.952Z,0.00
2023-06-27T00:02:13.015Z,0.00
2023-06-27T00:03:19.380Z,0.00
2023-06-27T00:04:12.913Z,0.00
2023-06-27T00:05:12.862Z,0.00
2023-06-27T00:06:13.044Z,0.00
2023-06-27T00:07:13.176Z,0.00
2023-06-27T00:08:12.908Z,0.00
2023-06-27T00:09:19.129Z,0.00
2023-06-27T00:10:12.924Z,0.00
2023-06-27T00:11:12.831Z,0.00
2023-06-27T00:12:12.945Z,0.00
2023-06-27T00:13:13.872Z,0.00
2023-06-27T00:14:19.452Z,0.00
2023-06-27T00:15:12.745Z,0.00
2023-06-27T00:16:12.760Z,0.00
2023-06-27T00:17:12.876Z,0.00
2023-06-27T00:18:12.747Z,0.00
2023-06-27T00:19:19.288Z,0.00
2023-06-27T00:20:12.863Z,0.00
2023-06-27T00:21:13.361Z,0.00
2023-06-27T00:22:12.829Z,0.00
2023-06-27T00:23:12.709Z,0.00
2023-06-27T00:24:18.906Z,0.00
2023-06-27T00:25:12.686Z,0.00
2023-06-27T00:26:12.622Z,0.00
2023-06-27T00:27:12.685Z,0.00
2023-06-27T00:28:12.591Z,0.00
2023-06-27T00:29:12.594Z,0.00
2023-06-27T00:30:18.902Z,0.00
2023-06-27T00:31:12.632Z,0.00
2023-06-27T00:32:12.564Z,0.00
2023-06-27T00:33:12.527Z,0.00
2023-06-27T00:34:12.539Z,0.00
2023-06-27T00:35:18.832Z,0.00
2023-06-27T00:36:12.480Z,0.00
2023-06-27T00:37:12.505Z,0.00
2023-06-27T00:38:12.481Z,0.00
2023-06-27T00:39:12.621Z,0.00
2023-06-27T00:40:12.485Z,0.00
2023-06-27T00:41:18.793Z,0.00
2023-06-27T00:42:12.457Z,0.00
2023-06-27T00:43:12.458Z,0.00
2023-06-27T00:44:12.472Z,0.00
2023-06-27T00:45:12.369Z,0.00
2023-06-27T00:46:12.355Z,0.00
2023-06-27T00:47:18.717Z,0.00
2023-06-27T00:48:12.326Z,0.00
2023-06-27T00:49:12.391Z,0.00
2023-06-27T00:50:14.043Z,0.00
2023-06-27T00:51:12.508Z,0.00
2023-06-27T00:52:18.580Z,0.00
2023-06-27T00:53:12.281Z,0.00
2023-06-27T00:54:12.310Z,0.00
2023-06-27T00:55:12.278Z,0.00
2023-06-27T00:56:12.301Z,0.00
2023-06-27T00:57:13.272Z,0.00
2023-06-27T00:58:18.528Z,0.00
2023-06-27T00:59:12.309Z,0.00
2023-06-27T01:00:12.304Z,0.00
2023-06-27T01:01:12.290Z,0.00
2023-06-27T01:02:12.214Z,0.00
2023-06-27T01:03:18.629Z,0.00
2023-06-27T01:04:13.243Z,0.00
2023-06-27T01:05:12.226Z,0.00
2023-06-27T01:06:12.230Z,0.00
2023-06-27T01:07:12.342Z,0.00
2023-06-27T01:08:18.343Z,0.00
2023-06-27T01:09:12.147Z,0.00
2023-06-27T01:10:12.138Z,0.00
2023-06-27T01:11:12.086Z,0.00
2023-06-27T01:12:12.772Z,0.00
2023-06-27T01:13:12.082Z,0.00
2023-06-27T01:14:18.392Z,0.00
2023-06-27T01:15:12.105Z,0.00
2023-06-27T01:16:12.157Z,0.00
2023-06-27T01:17:12.103Z,0.00
2023-06-27T01:18:12.045Z,0.00
2023-06-27T01:19:12.012Z,0.00
2023-06-27T01:20:18.382Z,0.00
2023-06-27T01:21:11.926Z,0.00
2023-06-27T01:22:12.017Z,0.00
2023-06-27T01:23:11.908Z,0.00
2023-06-27T01:24:12.164Z,0.00
2023-06-27T01:25:18.225Z,0.00
2023-06-27T01:26:12.028Z,0.00
2023-06-27T01:27:11.929Z,0.00
2023-06-27T01:28:11.903Z,0.00
2023-06-27T01:29:11.963Z,0.00
2023-06-27T01:30:11.904Z,0.00
2023-06-27T01:31:18.180Z,0.00
2023-06-27T01:32:11.805Z,0.00
2023-06-27T01:33:11.958Z,0.00
2023-06-27T01:34:12.804Z,0.00
2023-06-27T01:35:11.883Z,0.00
2023-06-27T01:36:11.812Z,0.00
2023-06-27T01:37:18.086Z,0.00
2023-06-27T01:38:11.720Z,0.00
2023-06-27T01:39:11.774Z,0.00
2023-06-27T01:40:11.865Z,0.00
2023-06-27T01:41:11.766Z,0.00
2023-06-27T01:42:11.840Z,0.00
2023-06-27T01:43:18.060Z,0.00
2023-06-27T01:44:11.716Z,0.00
2023-06-27T01:45:11.795Z,0.00
2023-06-27T01:46:11.819Z,0.00
2023-06-27T01:47:12.324Z,0.00
2023-06-27T01:48:18.059Z,0.00
2023-06-27T01:49:11.632Z,0.00
2023-06-27T01:50:11.669Z,0.00
2023-06-27T01:51:11.556Z,0.00
2023-06-27T01:52:11.526Z,0.00
2023-06-27T01:53:11.545Z,0.00
2023-06-27T01:54:17.973Z,0.00
2023-06-27T01:55:11.556Z,0.00
2023-06-27T01:56:12.147Z,0.00
2023-06-27T01:57:11.610Z,0.00
2023-06-27T01:58:11.455Z,0.00
2023-06-27T01:59:11.478Z,0.00
2023-06-27T02:00:17.818Z,0.00
2023-06-27T02:01:11.648Z,0.00
2023-06-27T02:02:11.531Z,0.00
2023-06-27T02:03:11.517Z,0.00
2023-06-27T02:04:11.505Z,0.00
2023-06-27T02:05:17.761Z,0.00
2023-06-27T02:06:11.469Z,0.00
2023-06-27T02:07:11.625Z,0.00
2023-06-27T02:08:11.426Z,0.00
2023-06-27T02:09:11.423Z,0.00
2023-06-27T02:10:11.328Z,0.00
2023-06-27T02:11:17.692Z,0.00
2023-06-27T02:12:11.268Z,0.00
2023-06-27T02:13:11.449Z,0.00
2023-06-27T02:14:11.261Z,4.00
2023-06-27T02:15:11.418Z,4.00
2023-06-27T02:16:11.201Z,4.00
2023-06-27T02:17:17.660Z,4.00
2023-06-27T02:18:11.253Z,0.00
2023-06-27T02:19:11.210Z,4.00
2023-06-27T02:20:11.189Z,4.00
2023-06-27T02:21:11.351Z,4.00
2023-06-27T02:22:11.139Z,4.00
2023-06-27T02:23:17.598Z,4.00
2023-06-27T02:24:11.183Z,8.00
2023-06-27T02:25:11.141Z,4.00
2023-06-27T02:26:11.168Z,8.00
2023-06-27T02:27:11.352Z,8.00
2023-06-27T02:28:11.269Z,8.00
2023-06-27T02:29:17.434Z,8.00
2023-06-27T02:30:11.132Z,12.00
2023-06-27T02:31:11.173Z,12.00
2023-06-27T02:32:11.050Z,16.00
2023-06-27T02:33:11.043Z,16.00
2023-06-27T02:34:18.459Z,16.00
2023-06-27T02:35:11.082Z,16.00
2023-06-27T02:36:11.342Z,16.00
2023-06-27T02:37:11.043Z,20.00
2023-06-27T02:38:11.121Z,20.00
2023-06-27T02:39:17.252Z,24.00
2023-06-27T02:40:11.193Z,24.00
2023-06-27T02:41:11.273Z,28.00
2023-06-27T02:42:11.908Z,32.00
2023-06-27T02:43:11.059Z,32.00
2023-06-27T02:44:17.323Z,36.00
2023-06-27T02:45:10.909Z,40.00
2023-06-27T02:46:11.089Z,44.00
2023-06-27T02:47:10.860Z,48.00
2023-06-27T02:48:10.830Z,48.00
2023-06-27T02:49:17.239Z,52.00
2023-06-27T02:50:10.858Z,56.00
2023-06-27T02:51:10.944Z,60.00
2023-06-27T02:52:10.874Z,64.00
2023-06-27T02:53:10.945Z,72.00
2023-06-27T02:54:10.761Z,72.00
2023-06-27T02:56:09.891Z,84.00
2023-06-27T02:57:08.864Z,88.00
2023-06-27T02:58:08.847Z,92.00
2023-06-27T02:59:08.899Z,96.00
2023-06-27T03:00:08.812Z,104.00
2023-06-27T03:01:15.093Z,104.00
2023-06-27T03:02:08.836Z,112.00
2023-06-27T03:03:09.865Z,120.00
2023-06-27T03:04:19.317Z,124.00
2023-06-27T03:05:10.242Z,128.00
2023-06-27T03:06:14.983Z,132.00
2023-06-27T03:07:08.783Z,144.00
2023-06-27T03:08:08.689Z,148.00
2023-06-27T03:09:08.678Z,156.00
2023-06-27T03:10:08.770Z,160.00
2023-06-27T03:11:14.932Z,168.00
2023-06-27T03:12:08.659Z,172.00
2023-06-27T03:13:08.640Z,180.00
2023-06-27T03:14:08.644Z,184.00
2023-06-27T03:15:08.677Z,192.00
2023-06-27T03:16:08.633Z,200.00
2023-06-27T03:17:15.794Z,204.00
2023-06-27T03:18:08.571Z,212.00
2023-06-27T03:19:08.532Z,220.00
2023-06-27T03:20:08.598Z,224.00
2023-06-27T03:21:08.566Z,236.00
2023-06-27T03:22:14.765Z,240.00
2023-06-27T03:23:09.433Z,248.00
2023-06-27T03:24:08.492Z,252.00
2023-06-27T03:25:11.538Z,260.00
2023-06-27T03:26:08.487Z,268.00
2023-06-27T03:27:08.497Z,276.00
2023-06-27T03:28:15.604Z,280.00
2023-06-27T03:29:08.455Z,288.00
2023-06-27T03:30:09.196Z,296.00
2023-06-27T03:31:09.049Z,300.00
2023-06-27T03:32:09.367Z,308.00
2023-06-27T03:33:08.520Z,312.00
2023-06-27T03:34:15.577Z,316.00
2023-06-27T03:35:09.316Z,320.00
2023-06-27T03:36:10.369Z,328.00
2023-06-27T03:37:08.369Z,340.00
2023-06-27T03:38:09.251Z,352.00
2023-06-27T03:39:08.947Z,364.00
2023-06-27T03:40:15.364Z,372.00
2023-06-27T03:41:09.242Z,388.00
2023-06-27T03:42:08.347Z,396.00
2023-06-27T03:43:08.283Z,412.00
2023-06-27T03:44:09.248Z,420.00
2023-06-27T03:45:09.184Z,432.00
2023-06-27T03:46:15.448Z,444.00
2023-06-27T03:47:09.153Z,452.00
2023-06-27T03:48:08.264Z,456.00
2023-06-27T03:49:09.152Z,456.00
2023-06-27T03:50:09.112Z,452.00
2023-06-27T03:51:09.108Z,456.00
2023-06-27T03:52:15.335Z,452.00
2023-06-27T03:53:09.159Z,456.00
2023-06-27T03:54:09.035Z,460.00
2023-06-27T03:55:09.036Z,464.00
2023-06-27T03:56:09.035Z,472.00
2023-06-27T03:57:09.025Z,476.00
2023-06-27T03:58:15.354Z,484.00
2023-06-27T03:59:09.035Z,492.00
2023-06-27T04:00:09.014Z,496.00
2023-06-27T04:01:08.955Z,508.00
2023-06-27T04:02:08.958Z,512.00
2023-06-27T04:03:15.310Z,516.00
2023-06-27T04:04:09.922Z,524.00
2023-06-27T04:05:08.183Z,528.00
2023-06-27T04:06:08.912Z,532.00
2023-06-27T04:07:08.947Z,536.00
2023-06-27T04:08:07.958Z,544.00
2023-06-27T04:09:15.114Z,552.00
2023-06-27T04:10:08.879Z,556.00
2023-06-27T04:11:08.827Z,560.00
2023-06-27T04:12:08.828Z,572.00
2023-06-27T04:13:07.853Z,568.00
2023-06-27T04:14:15.039Z,576.00
2023-06-27T04:15:08.848Z,576.00
2023-06-27T04:16:08.779Z,580.00
2023-06-27T04:17:08.784Z,588.00
2023-06-27T04:18:07.860Z,592.00
2023-06-27T04:19:08.758Z,600.00
2023-06-27T04:20:14.990Z,600.00
2023-06-27T04:21:08.691Z,608.00
2023-06-27T04:22:08.725Z,616.00
2023-06-27T04:23:07.736Z,616.00
2023-06-27T04:24:08.675Z,624.00
2023-06-27T04:25:07.683Z,628.00
2023-06-27T04:26:14.003Z,632.00
2023-06-27T04:27:08.632Z,636.00
2023-06-27T04:28:08.603Z,644.00
2023-06-27T04:29:08.599Z,648.00
2023-06-27T04:30:08.575Z,656.00
2023-06-27T04:31:07.677Z,656.00
2023-06-27T04:32:14.793Z,660.00
2023-06-27T04:33:08.579Z,668.00
2023-06-27T04:34:08.550Z,672.00
2023-06-27T04:35:08.516Z,680.00
2023-06-27T04:36:08.561Z,672.00
2023-06-27T04:37:08.518Z,688.00
2023-06-27T04:38:14.767Z,696.00
2023-06-27T04:39:08.467Z,696.00
2023-06-27T04:40:08.471Z,692.00
2023-06-27T04:41:07.540Z,700.00
2023-06-27T04:42:08.447Z,708.00
2023-06-27T04:43:08.395Z,704.00
2023-06-27T04:44:14.660Z,712.00
2023-06-27T04:45:08.377Z,716.00
2023-06-27T04:46:07.491Z,720.00
2023-06-27T04:47:08.478Z,716.00
2023-06-27T04:48:08.394Z,728.00
2023-06-27T04:49:08.388Z,732.00
2023-06-27T04:50:14.631Z,736.00
2023-06-27T04:51:07.332Z,736.00
2023-06-27T04:52:07.355Z,740.00
2023-06-27T04:53:08.334Z,736.00
2023-06-27T04:54:09.246Z,748.00
2023-06-27T04:55:08.270Z,752.00
2023-06-27T04:56:14.530Z,756.00
2023-06-27T04:57:13.076Z,756.00
2023-06-27T04:58:08.770Z,764.00
2023-06-27T04:59:07.359Z,764.00
2023-06-27T05:00:08.174Z,772.00
2023-06-27T05:01:14.532Z,776.00
2023-06-27T05:02:08.162Z,776.00
2023-06-27T05:03:08.159Z,780.00
2023-06-27T05:04:08.203Z,784.00
2023-06-27T05:05:08.158Z,788.00
2023-06-27T05:06:14.349Z,788.00
2023-06-27T05:07:08.142Z,792.00
2023-06-27T05:08:08.100Z,792.00
2023-06-27T05:09:08.100Z,800.00
2023-06-27T05:10:08.078Z,852.00
2023-06-27T05:11:08.029Z,812.00
2023-06-27T05:12:14.330Z,816.00
2023-06-27T05:13:08.030Z,820.00
2023-06-27T05:14:08.025Z,828.00
2023-06-27T05:15:08.080Z,836.00
2023-06-27T05:16:07.978Z,840.00
2023-06-27T05:17:07.978Z,832.00
2023-06-27T05:18:14.217Z,840.00
2023-06-27T05:19:07.957Z,892.00
2023-06-27T05:20:07.908Z,1136.00
2023-06-27T05:21:08.028Z,884.00
2023-06-27T05:22:07.907Z,872.00
2023-06-27T05:23:07.892Z,836.00
2023-06-27T05:24:14.125Z,888.00
2023-06-27T05:25:06.927Z,904.00
2023-06-27T05:26:07.847Z,904.00
2023-06-27T05:27:07.822Z,904.00
2023-06-27T05:28:07.901Z,948.00
2023-06-27T05:29:14.035Z,892.00
2023-06-27T05:30:07.815Z,900.00
2023-06-27T05:31:07.869Z,940.00
2023-06-27T05:32:07.755Z,912.00
2023-06-27T05:33:07.948Z,896.00
2023-06-27T05:34:14.038Z,888.00
2023-06-27T05:35:07.736Z,892.00
2023-06-27T05:36:07.966Z,900.00
2023-06-27T05:37:07.699Z,920.00
2023-06-27T05:38:07.717Z,928.00
2023-06-27T05:39:07.691Z,924.00
2023-06-27T05:40:13.897Z,912.00
2023-06-27T05:41:07.742Z,912.00
2023-06-27T05:42:07.652Z,916.00
2023-06-27T05:43:07.638Z,908.00
2023-06-27T05:44:07.614Z,932.00
2023-06-27T05:45:07.611Z,968.00
2023-06-27T05:46:13.844Z,944.00
2023-06-27T05:47:07.539Z,936.00
2023-06-27T05:48:07.683Z,924.00
2023-06-27T05:49:07.557Z,924.00
2023-06-27T05:50:07.528Z,972.00
2023-06-27T05:51:07.566Z,1104.00
2023-06-27T05:52:13.793Z,1032.00
2023-06-27T05:53:07.475Z,1000.00
2023-06-27T05:54:07.481Z,972.00
2023-06-27T05:55:07.495Z,972.00
2023-06-27T05:56:07.605Z,968.00
2023-06-27T05:57:07.442Z,1020.00
2023-06-27T05:58:13.754Z,1108.00
2023-06-27T05:59:07.427Z,1284.00
2023-06-27T06:00:07.441Z,1144.00
2023-06-27T06:01:07.432Z,1220.00
2023-06-27T06:02:07.438Z,1472.00
2023-06-27T06:03:07.358Z,1396.00
2023-06-27T06:04:13.667Z,1332.00
2023-06-27T06:05:07.324Z,1196.00
2023-06-27T06:06:07.357Z,1296.00
2023-06-27T06:07:07.419Z,1680.00
2023-06-27T06:08:07.317Z,1340.00
2023-06-27T06:09:13.566Z,1500.00
2023-06-27T06:10:07.294Z,1348.00
2023-06-27T06:11:07.278Z,1380.00
2023-06-27T06:12:07.277Z,1760.00
2023-06-27T06:13:07.222Z,1416.00
2023-06-27T06:14:13.497Z,1588.00
2023-06-27T06:15:07.274Z,2568.00
2023-06-27T06:16:07.189Z,2044.00
2023-06-27T06:17:07.206Z,1188.00
2023-06-27T06:18:07.218Z,1464.00
2023-06-27T06:19:07.219Z,2020.00
2023-06-27T06:20:13.396Z,1800.00
2023-06-27T06:21:07.168Z,1616.00
2023-06-27T06:22:07.121Z,2740.00
2023-06-27T06:23:07.095Z,1732.00
2023-06-27T06:24:07.120Z,1224.00
2023-06-27T06:25:06.116Z,1468.00
2023-06-27T06:26:13.279Z,1508.00
2023-06-27T06:27:07.070Z,1484.00
2023-06-27T06:28:07.054Z,1592.00
2023-06-27T06:29:07.031Z,1252.00
2023-06-27T06:30:07.005Z,1632.00
2023-06-27T06:31:13.330Z,2112.00
2023-06-27T06:32:06.078Z,2160.00
2023-06-27T06:33:06.896Z,1992.00
2023-06-27T06:34:06.988Z,1692.00
2023-06-27T06:35:06.970Z,2416.00
2023-06-27T06:36:06.970Z,2452.00
2023-06-27T06:37:13.208Z,2768.00
2023-06-27T06:38:09.951Z,2860.00
2023-06-27T06:39:06.918Z,1852.00
2023-06-27T06:40:06.861Z,2692.00
2023-06-27T06:41:07.014Z,2652.00
2023-06-27T06:42:13.166Z,2664.00
2023-06-27T06:43:06.840Z,2200.00
2023-06-27T06:44:06.861Z,1824.00
2023-06-27T06:45:06.853Z,2140.00
2023-06-27T06:46:06.822Z,2992.00
2023-06-27T06:47:06.807Z,2340.00
2023-06-27T06:48:13.071Z,3392.00
2023-06-27T06:49:07.013Z,3356.00
2023-06-27T06:50:06.770Z,3756.00
2023-06-27T06:51:05.786Z,2132.00
2023-06-27T06:52:06.727Z,1920.00
2023-06-27T06:53:12.952Z,1996.00
2023-06-27T06:54:06.752Z,1516.00
2023-06-27T06:55:06.672Z,1472.00
2023-06-27T06:56:06.719Z,2196.00
2023-06-27T06:57:08.141Z,2312.00
2023-06-27T06:58:12.893Z,2484.00
2023-06-27T06:59:06.640Z,2864.00
2023-06-27T07:00:06.632Z,2968.00
2023-06-27T07:01:06.637Z,2824.00
2023-06-27T07:02:06.592Z,3104.00
2023-06-27T07:03:06.837Z,2484.00
2023-06-27T07:04:12.867Z,2360.00
2023-06-27T07:05:06.596Z,2976.00
2023-06-27T07:06:06.572Z,2108.00
2023-06-27T07:07:06.572Z,2228.00
2023-06-27T07:08:06.521Z,2872.00
2023-06-27T07:09:06.491Z,1712.00
2023-06-27T07:10:11.788Z,1316.00
2023-06-27T07:11:06.490Z,1296.00
2023-06-27T07:12:06.470Z,1444.00
2023-06-27T07:13:06.496Z,2252.00
2023-06-27T07:14:05.506Z,2452.00
2023-06-27T07:15:06.468Z,2600.00
2023-06-27T07:16:12.659Z,2800.00
2023-06-27T07:17:06.433Z,3128.00
2023-06-27T07:18:06.438Z,3336.00
2023-06-27T07:19:06.397Z,3148.00
2023-06-27T07:20:06.422Z,3404.00
2023-06-27T07:21:06.433Z,4004.00
2023-06-27T07:22:11.617Z,2884.00
2023-06-27T07:23:06.338Z,2992.00
2023-06-27T07:24:06.329Z,1964.00
2023-06-27T07:25:05.360Z,3276.00
2023-06-27T07:26:05.357Z,3172.00
2023-06-27T07:27:06.323Z,3324.00
2023-06-27T07:28:12.562Z,2300.00
2023-06-27T07:29:05.316Z,3492.00
2023-06-27T07:30:06.258Z,3684.00
2023-06-27T07:31:06.265Z,3936.00
2023-06-27T07:32:06.225Z,6172.00
2023-06-27T07:33:06.258Z,4540.00
2023-06-27T07:34:12.509Z,3668.00
2023-06-27T07:35:06.152Z,3468.00
2023-06-27T07:36:06.273Z,3124.00
2023-06-27T07:37:06.172Z,4228.00
2023-06-27T07:38:06.233Z,4016.00
2023-06-27T07:39:12.372Z,3020.00
2023-06-27T07:40:06.124Z,2660.00
2023-06-27T07:41:05.209Z,2416.00
2023-06-27T07:42:06.083Z,2680.00
2023-06-27T07:43:06.044Z,2812.00
2023-06-27T07:44:12.377Z,3612.00
2023-06-27T07:45:06.148Z,3552.00
2023-06-27T07:46:07.692Z,2868.00
2023-06-27T07:47:06.064Z,4012.00
2023-06-27T07:48:06.093Z,3884.00
2023-06-27T07:49:05.987Z,3204.00
2023-06-27T07:50:12.269Z,3224.00
2023-06-27T07:51:05.962Z,2988.00
2023-06-27T07:52:05.014Z,5780.00
2023-06-27T07:53:05.035Z,6068.00
2023-06-27T07:54:04.997Z,5780.00
2023-06-27T07:55:04.986Z,5972.00
2023-06-27T07:56:11.213Z,6784.00
2023-06-27T07:57:04.932Z,4248.00
2023-06-27T07:58:04.928Z,1844.00
2023-06-27T07:59:05.914Z,1876.00
2023-06-27T08:00:04.887Z,1788.00
2023-06-27T08:01:05.847Z,3004.00
2023-06-27T08:02:12.131Z,5436.00
2023-06-27T08:03:06.002Z,2468.00
2023-06-27T08:04:05.887Z,2052.00
2023-06-27T08:05:05.818Z,5260.00
2023-06-27T08:06:06.019Z,5932.00
2023-06-27T08:07:05.790Z,5104.00
2023-06-27T08:08:11.997Z,5836.00
2023-06-27T08:09:04.761Z,5968.00
2023-06-27T08:10:05.716Z,6124.00
2023-06-27T08:11:05.758Z,6144.00
2023-06-27T08:12:05.704Z,6224.00
2023-06-27T08:13:11.978Z,6704.00
2023-06-27T08:14:05.710Z,7172.00
2023-06-27T08:15:05.655Z,6652.00
2023-06-27T08:16:05.628Z,6312.00
2023-06-27T08:17:04.727Z,4436.00
2023-06-27T08:18:11.979Z,6072.00
2023-06-27T08:19:05.590Z,5264.00
2023-06-27T08:20:05.579Z,1736.00
2023-06-27T08:21:05.684Z,1700.00
2023-06-27T08:22:05.619Z,1624.00
2023-06-27T08:23:05.567Z,1616.00
2023-06-27T08:24:11.748Z,1484.00
2023-06-27T08:25:04.566Z,1540.00
2023-06-27T08:26:05.583Z,1640.00
2023-06-27T08:27:04.582Z,5664.00
2023-06-27T08:28:06.483Z,5680.00
2023-06-27T08:29:05.469Z,5824.00
2023-06-27T08:30:11.786Z,5876.00
2023-06-27T08:31:05.643Z,6132.00
2023-06-27T08:32:05.465Z,6388.00
2023-06-27T08:33:05.543Z,7056.00
2023-06-27T08:34:05.411Z,7048.00
2023-06-27T08:35:11.644Z,8152.00
2023-06-27T08:36:05.486Z,8624.00
2023-06-27T08:37:05.505Z,7976.00
2023-06-27T08:38:05.352Z,5240.00
2023-06-27T08:39:05.349Z,4816.00
2023-06-27T08:40:05.398Z,3336.00
2023-06-27T08:41:11.606Z,3720.00
2023-06-27T08:42:05.322Z,3176.00
2023-06-27T08:43:05.326Z,3240.00
2023-06-27T08:44:05.302Z,2756.00
2023-06-27T08:45:05.286Z,2740.00
2023-06-27T08:46:05.228Z,2800.00
2023-06-27T08:47:10.551Z,3212.00
2023-06-27T08:48:04.367Z,3264.00
2023-06-27T08:49:05.532Z,3512.00
2023-06-27T08:50:05.374Z,3604.00
2023-06-27T08:51:05.218Z,4004.00
2023-06-27T08:52:11.447Z,4284.00
2023-06-27T08:53:05.179Z,4392.00
2023-06-27T08:54:05.170Z,8892.00
2023-06-27T08:56:01.654Z,8692.00
2023-06-27T08:57:09.781Z,10548.00
2023-06-27T08:58:01.608Z,8144.00
2023-06-27T08:59:01.702Z,3288.00
2023-06-27T09:00:01.600Z,3288.00
2023-06-27T09:01:01.749Z,3260.00
2023-06-27T09:02:08.794Z,4284.00
2023-06-27T09:03:01.615Z,8732.00
2023-06-27T09:04:01.614Z,8696.00
2023-06-27T09:05:01.630Z,8900.00
2023-06-27T09:06:01.541Z,9648.00
2023-06-27T09:07:01.563Z,5736.00
2023-06-27T09:08:08.679Z,9288.00
2023-06-27T09:09:01.513Z,7780.00
2023-06-27T09:10:01.520Z,10588.00
2023-06-27T09:11:01.462Z,5252.00
2023-06-27T09:12:01.437Z,3872.00
2023-06-27T09:13:01.458Z,2668.00
2023-06-27T09:14:08.843Z,2388.00
2023-06-27T09:15:01.502Z,2768.00
2023-06-27T09:16:01.480Z,3496.00
2023-06-27T09:17:01.436Z,2980.00
2023-06-27T09:18:01.394Z,2328.00
2023-06-27T09:19:07.670Z,2328.00
2023-06-27T09:20:01.367Z,1536.00
2023-06-27T09:21:01.332Z,1112.00
2023-06-27T09:22:01.381Z,992.00
2023-06-27T09:23:01.344Z,912.00
2023-06-27T09:24:08.559Z,848.00
2023-06-27T09:25:01.305Z,856.00
2023-06-27T09:26:01.263Z,984.00
2023-06-27T09:27:01.359Z,1168.00
2023-06-27T09:28:01.241Z,1496.00
2023-06-27T09:29:01.279Z,1792.00
2023-06-27T09:30:08.446Z,2152.00
2023-06-27T09:31:01.286Z,2716.00
2023-06-27T09:32:01.247Z,3680.00
2023-06-27T09:33:01.350Z,4160.00
2023-06-27T09:34:03.223Z,5192.00
2023-06-27T09:35:09.494Z,5160.00
2023-06-27T09:36:02.936Z,8156.00
2023-06-27T09:39:01.096Z,10260.00
2023-06-27T09:40:01.108Z,9616.00
2023-06-27T09:41:08.283Z,9588.00
2023-06-27T09:42:01.073Z,9360.00
2023-06-27T09:43:01.173Z,9252.00
2023-06-27T09:44:02.962Z,9228.00
2023-06-27T09:45:01.749Z,9268.00
2023-06-27T09:46:01.026Z,9340.00
2023-06-27T09:47:08.251Z,9320.00
2023-06-27T09:48:01.055Z,9264.00
2023-06-27T09:49:00.985Z,9108.00
2023-06-27T09:50:00.958Z,9176.00
2023-06-27T09:51:00.934Z,9252.00
2023-06-27T09:52:00.979Z,9288.00
2023-06-27T09:53:07.256Z,9376.00
2023-06-27T09:54:00.937Z,9492.00
2023-06-27T09:55:00.909Z,9620.00
2023-06-27T09:56:00.872Z,9736.00
2023-06-27T09:57:01.155Z,9804.00
2023-06-27T09:58:02.588Z,10008.00
2023-06-27T10:00:00.850Z,10988.00
2023-06-27T10:01:00.827Z,12232.00
2023-06-27T10:02:00.828Z,4612.00
2023-06-27T10:03:00.830Z,8104.00
2023-06-27T10:04:00.839Z,3684.00
2023-06-27T10:05:09.050Z,12668.00
2023-06-27T10:06:08.986Z,5748.00
2023-06-27T10:07:02.271Z,5660.00
2023-06-27T10:08:00.759Z,10564.00
2023-06-27T10:09:00.734Z,5432.00
2023-06-27T10:10:00.727Z,4596.00
2023-06-27T10:11:10.082Z,10012.00
2023-06-27T10:12:00.676Z,3292.00
2023-06-27T10:13:00.708Z,2184.00
2023-06-27T10:14:00.681Z,1560.00
2023-06-27T10:15:00.715Z,1256.00
2023-06-27T10:16:00.656Z,1252.00
2023-06-27T10:17:08.963Z,1412.00
2023-06-27T10:18:01.588Z,1780.00
2023-06-27T10:19:00.600Z,1600.00
2023-06-27T10:20:00.573Z,1464.00
2023-06-27T10:21:00.658Z,1420.00
2023-06-27T10:22:00.548Z,1420.00
2023-06-27T10:23:07.770Z,1496.00
2023-06-27T10:24:00.561Z,1596.00
2023-06-27T10:25:00.557Z,1812.00
2023-06-27T10:26:00.577Z,2040.00
2023-06-27T10:27:01.033Z,2348.00
2023-06-27T10:28:00.524Z,2800.00
2023-06-27T10:29:10.112Z,3316.00
2023-06-27T10:30:00.451Z,4132.00
2023-06-27T10:31:00.437Z,5480.00
2023-06-27T10:32:00.413Z,7120.00
2023-06-27T10:33:00.549Z,6956.00
2023-06-27T10:34:00.398Z,15072.00
2023-06-27T10:35:07.590Z,16064.00
2023-06-27T10:36:00.746Z,17792.00
2023-06-27T10:37:00.373Z,3068.00
2023-06-27T10:38:00.376Z,1676.00
2023-06-27T10:39:00.944Z,1532.00
2023-06-27T10:40:07.504Z,1948.00
2023-06-27T10:41:00.297Z,1796.00
2023-06-27T10:42:01.903Z,1420.00
2023-06-27T10:43:00.260Z,1028.00
2023-06-27T10:44:00.289Z,772.00
2023-06-27T10:45:07.472Z,664.00
2023-06-27T10:46:00.237Z,600.00
2023-06-27T10:47:00.887Z,628.00
2023-06-27T10:48:00.303Z,800.00
2023-06-27T10:49:00.273Z,1048.00
2023-06-27T10:50:06.433Z,1308.00
2023-06-27T10:51:00.191Z,1628.00
2023-06-27T10:52:00.157Z,1980.00
2023-06-27T10:53:00.206Z,2348.00
2023-06-27T10:54:00.170Z,2856.00
2023-06-27T10:55:07.323Z,3296.00
2023-06-27T10:56:00.111Z,3500.00
2023-06-27T10:57:00.088Z,3696.00
2023-06-27T10:58:00.128Z,3912.00
2023-06-27T10:59:00.060Z,4236.00
2023-06-27T11:00:00.083Z,4904.00
2023-06-27T11:01:07.294Z,5712.00
2023-06-27T11:02:00.134Z,7164.00
2023-06-27T11:03:00.230Z,11896.00
2023-06-27T11:04:00.190Z,15872.00
2023-06-27T11:05:00.117Z,20352.00
2023-06-27T11:06:08.780Z,29632.00
2023-06-27T11:06:59.997Z,41728.00
2023-06-27T11:08:00.010Z,52992.00
2023-06-27T11:08:59.954Z,45024.00
2023-06-27T11:09:59.945Z,43360.00
2023-06-27T11:10:59.942Z,59040.00
2023-06-27T11:12:06.143Z,88544.00
2023-06-27T11:12:59.875Z,90688.00
2023-06-27T11:13:59.915Z,93536.00
2023-06-27T11:14:59.861Z,97120.00
2023-06-27T11:15:59.871Z,91456.00
2023-06-27T11:17:06.132Z,93920.00
2023-06-27T11:17:59.889Z,100448.00
2023-06-27T11:18:59.826Z,94592.00
2023-06-27T11:19:59.865Z,87968.00
2023-06-27T11:20:59.836Z,93440.00
2023-06-27T11:22:06.016Z,89280.00
2023-06-27T11:22:59.775Z,46880.00
2023-06-27T11:23:59.765Z,16960.00
2023-06-27T11:24:59.733Z,15584.00
2023-06-27T11:25:59.701Z,14880.00
2023-06-27T11:27:06.033Z,14944.00
2023-06-27T11:27:59.695Z,14944.00
2023-06-27T11:28:59.693Z,14752.00
2023-06-27T11:29:59.682Z,14880.00
2023-06-27T11:30:59.695Z,14912.00
2023-06-27T11:31:59.767Z,15200.00
2023-06-27T11:33:05.946Z,15552.00
2023-06-27T11:33:59.639Z,21024.00
2023-06-27T11:35:00.588Z,26784.00
2023-06-27T11:35:59.613Z,26272.00
2023-06-27T11:36:59.624Z,25472.00
2023-06-27T11:37:59.980Z,26176.00
2023-06-27T11:39:05.821Z,26880.00
2023-06-27T11:39:59.540Z,26368.00
2023-06-27T11:40:59.602Z,24736.00
2023-06-27T11:41:59.530Z,25760.00
2023-06-27T11:42:59.561Z,11540.00
2023-06-27T11:44:05.804Z,11744.00
2023-06-27T11:44:59.501Z,13156.00
2023-06-27T11:45:59.494Z,15136.00
2023-06-27T11:46:59.479Z,14688.00
2023-06-27T11:47:59.474Z,15008.00
2023-06-27T11:48:59.519Z,14912.00
2023-06-27T11:50:05.679Z,14880.00
2023-06-27T11:50:59.472Z,14912.00
2023-06-27T11:51:59.559Z,14496.00
2023-06-27T11:52:59.402Z,12956.00
2023-06-27T11:53:59.383Z,14464.00
2023-06-27T11:54:59.361Z,15040.00
2023-06-27T11:56:20.396Z,16448.00
2023-06-27T11:57:00.855Z,15104.00
2023-06-27T11:57:59.322Z,14816.00
2023-06-27T11:58:59.323Z,14528.00
2023-06-27T11:59:59.337Z,14400.00
2023-06-27T12:00:59.324Z,14368.00
2023-06-27T12:02:05.523Z,14336.00
2023-06-27T12:02:59.337Z,14400.00
2023-06-27T12:03:59.301Z,14528.00
2023-06-27T12:04:59.312Z,14656.00
2023-06-27T12:05:59.332Z,14912.00
2023-06-27T12:06:59.281Z,15296.00
2023-06-27T12:08:05.464Z,16224.00
2023-06-27T12:08:59.214Z,18272.00
2023-06-27T12:09:59.194Z,16544.00
2023-06-27T12:10:59.253Z,16320.00
2023-06-27T12:11:59.202Z,12024.00
2023-06-27T12:12:59.125Z,11712.00
2023-06-27T12:14:05.469Z,7604.00
2023-06-27T12:14:59.123Z,5600.00
2023-06-27T12:15:59.123Z,3548.00
2023-06-27T12:16:59.096Z,2508.00
2023-06-27T12:17:59.170Z,2124.00
2023-06-27T12:18:59.066Z,1760.00
2023-06-27T12:20:05.297Z,1764.00
2023-06-27T12:20:59.036Z,2380.00
2023-06-27T12:21:59.067Z,2340.00
2023-06-27T12:22:59.074Z,2128.00
2023-06-27T12:24:00.515Z,2036.00
2023-06-27T12:24:59.013Z,1820.00
2023-06-27T12:26:05.242Z,1636.00
2023-06-27T12:26:59.031Z,1512.00
2023-06-27T12:27:58.945Z,1456.00
2023-06-27T12:28:58.949Z,1488.00